Decoded Metar for KIEN (PINE RIDGE in SD, USA) (IATA:IEN) | Meteo·Mobile Aviation Weather
aviador You're here:

KIEN Decoded Metar

PINE RIDGE in SD, USA
Report Time2018-10-22 08:52:00
UTC Time2018-10-22 09:38:42
Flight Rules vfr VFR
Wind070° at 04 kt
W.Decomp.*RWY 06: 4.0 kt HW -0 kt LCW
RWY 12: 2.0 kt HW 3.5 kt LCW
W.Rank070° ranks 6
Current wind is below 070° avg. (6.0)
Visibility9999 m
Phenomena:N/A
Clouds:N/A
Expected CloudBase > 400 ft AGL from Temp-Dew spread
CeilingNone
Temp00°C (ISA -9)
Dew Point-1°C (93% RH)
AAT-3.6°C
QNH1020 hPa
Density Alt2,096 ft
Elevation3,274 ft
Report Wrong Elevation
Raw Report
KIEN 220852Z AUTO 07004KT 8SM CLR 00/M01 A3012 RMK AO2 SLP196
T00001011 53005=

Extra information for KIEN:More info

Metar Taf Metar & Taf Last 4 Metars F.Rules Stats Wind Profile Meteogram Temp Stats Airport Information Weather charts Add Link Nearby VenuesMetar ALERT Operation Metar Decoded Social comments

AIRNAV info for KIEN